sensor_id;sensor_type;location;lat;lon;timestamp;P1;durP1;ratioP1;P2;durP2;ratioP2
30243;SDS011;64022;53.652;9.792;2023-05-10T00:00:24;7.90;;;4.65;;
30243;SDS011;64022;53.652;9.792;2023-05-10T00:02:50;7.73;;;4.60;;
30243;SDS011;64022;53.652;9.792;2023-05-10T00:05:15;8.97;;;4.53;;
30243;SDS011;64022;53.652;9.792;2023-05-10T00:07:41;7.80;;;4.77;;
30243;SDS011;64022;53.652;9.792;2023-05-10T00:10:09;8.10;;;4.22;;
30243;SDS011;64022;53.652;9.792;2023-05-10T00:12:35;6.90;;;4.47;;
30243;SDS011;64022;53.652;9.792;2023-05-10T00:15:01;6.83;;;4.50;;
30243;SDS011;64022;53.652;9.792;2023-05-10T00:19:53;5.60;;;4.07;;
30243;SDS011;64022;53.652;9.792;2023-05-10T00:22:19;7.50;;;4.10;;
30243;SDS011;64022;53.652;9.792;2023-05-10T00:24:45;5.73;;;4.37;;
30243;SDS011;64022;53.652;9.792;2023-05-10T00:27:10;9.20;;;4.63;;
30243;SDS011;64022;53.652;9.792;2023-05-10T00:29:36;5.83;;;4.57;;
30243;SDS011;64022;53.652;9.792;2023-05-10T00:32:01;7.20;;;4.50;;
30243;SDS011;64022;53.652;9.792;2023-05-10T00:34:27;7.73;;;4.80;;
30243;SDS011;64022;53.652;9.792;2023-05-10T00:36:52;5.67;;;4.40;;
30243;SDS011;64022;53.652;9.792;2023-05-10T00:39:18;6.40;;;4.30;;
30243;SDS011;64022;53.652;9.792;2023-05-10T00:41:43;5.53;;;4.03;;
30243;SDS011;64022;53.652;9.792;2023-05-10T00:44:09;6.17;;;4.23;;
30243;SDS011;64022;53.652;9.792;2023-05-10T00:46:34;5.50;;;4.50;;
30243;SDS011;64022;53.652;9.792;2023-05-10T00:49:00;7.38;;;4.22;;
30243;SDS011;64022;53.652;9.792;2023-05-10T00:51:26;7.27;;;4.67;;
30243;SDS011;64022;53.652;9.792;2023-05-10T00:53:52;5.90;;;4.07;;
30243;SDS011;64022;53.652;9.792;2023-05-10T00:56:18;7.57;;;4.53;;
30243;SDS011;64022;53.652;9.792;2023-05-10T00:58:45;5.88;;;4.10;;
30243;SDS011;64022;53.652;9.792;2023-05-10T01:01:11;7.43;;;4.33;;
30243;SDS011;64022;53.652;9.792;2023-05-10T01:03:37;5.13;;;4.13;;
30243;SDS011;64022;53.652;9.792;2023-05-10T01:06:04;6.55;;;4.55;;
30243;SDS011;64022;53.652;9.792;2023-05-10T01:08:30;6.00;;;4.10;;
30243;SDS011;64022;53.652;9.792;2023-05-10T01:10:56;6.47;;;4.37;;
30243;SDS011;64022;53.652;9.792;2023-05-10T01:16:02;6.00;;;4.60;;
30243;SDS011;64022;53.652;9.792;2023-05-10T01:18:29;6.15;;;4.72;;
30243;SDS011;64022;53.652;9.792;2023-05-10T01:21:02;6.13;;;4.47;;
30243;SDS011;64022;53.652;9.792;2023-05-10T01:23:57;5.75;;;4.10;;
30243;SDS011;64022;53.652;9.792;2023-05-10T01:26:54;4.55;;;4.00;;
30243;SDS011;64022;53.652;9.792;2023-05-10T01:29:38;6.65;;;4.43;;
30243;SDS011;64022;53.652;9.792;2023-05-10T01:32:34;5.80;;;4.38;;
30243;SDS011;64022;53.652;9.792;2023-05-10T01:35:10;5.10;;;3.83;;
30243;SDS011;64022;53.652;9.792;2023-05-10T01:41:07;6.95;;;4.32;;
30243;SDS011;64022;53.652;9.792;2023-05-10T01:43:45;6.10;;;3.95;;
30243;SDS011;64022;53.652;9.792;2023-05-10T01:46:17;5.13;;;4.38;;
30243;SDS011;64022;53.652;9.792;2023-05-10T01:48:51;6.80;;;4.30;;
30243;SDS011;64022;53.652;9.792;2023-05-10T01:51:21;5.13;;;4.05;;
30243;SDS011;64022;53.652;9.792;2023-05-10T01:53:50;5.28;;;3.90;;
30243;SDS011;64022;53.652;9.792;2023-05-10T01:56:24;5.20;;;4.07;;
30243;SDS011;64022;53.652;9.792;2023-05-10T01:58:52;6.72;;;4.32;;
30243;SDS011;64022;53.652;9.792;2023-05-10T02:01:20;6.00;;;4.10;;
30243;SDS011;64022;53.652;9.792;2023-05-10T02:03:46;6.07;;;3.88;;
30243;SDS011;64022;53.652;9.792;2023-05-10T02:06:14;5.80;;;4.20;;
30243;SDS011;64022;53.652;9.792;2023-05-10T02:08:43;6.35;;;4.00;;
30243;SDS011;64022;53.652;9.792;2023-05-10T02:11:10;5.75;;;4.20;;
30243;SDS011;64022;53.652;9.792;2023-05-10T02:13:38;5.65;;;4.00;;
30243;SDS011;64022;53.652;9.792;2023-05-10T02:16:05;6.65;;;3.90;;
30243;SDS011;64022;53.652;9.792;2023-05-10T02:18:31;5.97;;;4.17;;
30243;SDS011;64022;53.652;9.792;2023-05-10T02:20:58;5.65;;;3.85;;
30243;SDS011;64022;53.652;9.792;2023-05-10T02:23:26;6.90;;;4.47;;
30243;SDS011;64022;53.652;9.792;2023-05-10T02:25:53;5.72;;;3.95;;
30243;SDS011;64022;53.652;9.792;2023-05-10T02:28:22;6.05;;;3.90;;
30243;SDS011;64022;53.652;9.792;2023-05-10T02:30:49;5.55;;;4.35;;
30243;SDS011;64022;53.652;9.792;2023-05-10T02:33:16;5.75;;;3.88;;
30243;SDS011;64022;53.652;9.792;2023-05-10T02:35:42;6.17;;;4.20;;
30243;SDS011;64022;53.652;9.792;2023-05-10T02:38:08;5.97;;;3.73;;
30243;SDS011;64022;53.652;9.792;2023-05-10T02:40:35;5.47;;;3.90;;
30243;SDS011;64022;53.652;9.792;2023-05-10T02:43:02;5.40;;;4.13;;
30243;SDS011;64022;53.652;9.792;2023-05-10T02:45:31;4.30;;;3.70;;
30243;SDS011;64022;53.652;9.792;2023-05-10T02:47:58;6.65;;;4.22;;
30243;SDS011;64022;53.652;9.792;2023-05-10T02:50:28;6.82;;;4.20;;
30243;SDS011;64022;53.652;9.792;2023-05-10T02:52:59;4.78;;;3.80;;
30243;SDS011;64022;53.652;9.792;2023-05-10T02:55:30;5.55;;;4.07;;
30243;SDS011;64022;53.652;9.792;2023-05-10T02:58:00;4.75;;;3.88;;
30243;SDS011;64022;53.652;9.792;2023-05-10T03:00:27;5.15;;;3.67;;
30243;SDS011;64022;53.652;9.792;2023-05-10T03:02:53;4.50;;;3.78;;
30243;SDS011;64022;53.652;9.792;2023-05-10T03:05:19;4.57;;;3.83;;
30243;SDS011;64022;53.652;9.792;2023-05-10T03:07:45;5.32;;;4.28;;
30243;SDS011;64022;53.652;9.792;2023-05-10T03:10:11;3.97;;;3.55;;
30243;SDS011;64022;53.652;9.792;2023-05-10T03:15:19;5.53;;;3.90;;
30243;SDS011;64022;53.652;9.792;2023-05-10T03:18:21;4.90;;;3.60;;
30243;SDS011;64022;53.652;9.792;2023-05-10T03:20:48;6.38;;;3.40;;
30243;SDS011;64022;53.652;9.792;2023-05-10T03:25:52;5.03;;;3.70;;
30243;SDS011;64022;53.652;9.792;2023-05-10T03:28:18;4.53;;;3.57;;
30243;SDS011;64022;53.652;9.792;2023-05-10T03:30:45;5.25;;;4.15;;
30243;SDS011;64022;53.652;9.792;2023-05-10T03:33:11;5.55;;;4.00;;
30243;SDS011;64022;53.652;9.792;2023-05-10T03:35:38;4.80;;;3.75;;
30243;SDS011;64022;53.652;9.792;2023-05-10T03:38:03;4.53;;;3.53;;
30243;SDS011;64022;53.652;9.792;2023-05-10T03:40:29;6.50;;;3.63;;
30243;SDS011;64022;53.652;9.792;2023-05-10T03:42:56;4.32;;;3.47;;
30243;SDS011;64022;53.652;9.792;2023-05-10T03:45:23;4.03;;;3.30;;
30243;SDS011;64022;53.652;9.792;2023-05-10T03:47:48;5.73;;;3.63;;
30243;SDS011;64022;53.652;9.792;2023-05-10T03:50:14;3.97;;;3.40;;
30243;SDS011;64022;53.652;9.792;2023-05-10T03:52:39;4.70;;;3.53;;
30243;SDS011;64022;53.652;9.792;2023-05-10T03:55:05;4.90;;;3.77;;
30243;SDS011;64022;53.652;9.792;2023-05-10T03:57:31;4.38;;;3.97;;
30243;SDS011;64022;53.652;9.792;2023-05-10T03:59:57;4.27;;;3.47;;
30243;SDS011;64022;53.652;9.792;2023-05-10T04:02:22;5.80;;;3.70;;
30243;SDS011;64022;53.652;9.792;2023-05-10T04:04:48;4.57;;;3.70;;
30243;SDS011;64022;53.652;9.792;2023-05-10T04:07:13;4.67;;;3.53;;
30243;SDS011;64022;53.652;9.792;2023-05-10T04:09:39;6.60;;;3.83;;
30243;SDS011;64022;53.652;9.792;2023-05-10T04:12:05;6.33;;;4.00;;
30243;SDS011;64022;53.652;9.792;2023-05-10T04:14:31;4.50;;;3.60;;
30243;SDS011;64022;53.652;9.792;2023-05-10T04:16:56;5.57;;;3.60;;
30243;SDS011;64022;53.652;9.792;2023-05-10T04:19:22;5.13;;;4.07;;
30243;SDS011;64022;53.652;9.792;2023-05-10T04:21:47;6.87;;;4.23;;
30243;SDS011;64022;53.652;9.792;2023-05-10T04:24:13;5.30;;;3.87;;
30243;SDS011;64022;53.652;9.792;2023-05-10T04:26:38;6.67;;;3.50;;
30243;SDS011;64022;53.652;9.792;2023-05-10T04:29:04;7.70;;;4.33;;
30243;SDS011;64022;53.652;9.792;2023-05-10T04:31:29;4.80;;;3.73;;
30243;SDS011;64022;53.652;9.792;2023-05-10T04:33:55;5.10;;;3.80;;
30243;SDS011;64022;53.652;9.792;2023-05-10T04:36:20;6.10;;;4.40;;
30243;SDS011;64022;53.652;9.792;2023-05-10T04:38:46;7.60;;;4.43;;
30243;SDS011;64022;53.652;9.792;2023-05-10T04:41:12;7.73;;;4.30;;
30243;SDS011;64022;53.652;9.792;2023-05-10T04:43:37;8.80;;;4.70;;
30243;SDS011;64022;53.652;9.792;2023-05-10T04:46:04;13.50;;;5.22;;
30243;SDS011;64022;53.652;9.792;2023-05-10T04:48:30;12.43;;;5.18;;
30243;SDS011;64022;53.652;9.792;2023-05-10T04:50:55;16.60;;;5.03;;
30243;SDS011;64022;53.652;9.792;2023-05-10T04:53:21;9.60;;;4.90;;
30243;SDS011;64022;53.652;9.792;2023-05-10T04:55:47;8.23;;;5.90;;
30243;SDS011;64022;53.652;9.792;2023-05-10T04:58:12;12.17;;;5.40;;
30243;SDS011;64022;53.652;9.792;2023-05-10T05:00:38;10.33;;;5.63;;
30243;SDS011;64022;53.652;9.792;2023-05-10T05:03:04;13.57;;;5.70;;
30243;SDS011;64022;53.652;9.792;2023-05-10T05:05:30;13.67;;;5.77;;
30243;SDS011;64022;53.652;9.792;2023-05-10T05:07:55;12.17;;;5.47;;
30243;SDS011;64022;53.652;9.792;2023-05-10T05:10:21;14.70;;;5.77;;
30243;SDS011;64022;53.652;9.792;2023-05-10T05:12:46;14.83;;;5.60;;
30243;SDS011;64022;53.652;9.792;2023-05-10T05:15:12;12.47;;;6.33;;
30243;SDS011;64022;53.652;9.792;2023-05-10T05:17:37;15.80;;;6.10;;
30243;SDS011;64022;53.652;9.792;2023-05-10T05:20:03;13.33;;;6.43;;
30243;SDS011;64022;53.652;9.792;2023-05-10T05:22:29;15.15;;;6.05;;
30243;SDS011;64022;53.652;9.792;2023-05-10T05:24:55;13.30;;;6.07;;
30243;SDS011;64022;53.652;9.792;2023-05-10T05:27:23;10.73;;;6.00;;
30243;SDS011;64022;53.652;9.792;2023-05-10T05:29:52;15.95;;;5.88;;
30243;SDS011;64022;53.652;9.792;2023-05-10T05:32:21;15.82;;;6.75;;
30243;SDS011;64022;53.652;9.792;2023-05-10T05:34:47;12.68;;;5.90;;
30243;SDS011;64022;53.652;9.792;2023-05-10T05:37:13;15.63;;;5.60;;
30243;SDS011;64022;53.652;9.792;2023-05-10T05:39:39;13.48;;;5.97;;
30243;SDS011;64022;53.652;9.792;2023-05-10T05:42:05;12.37;;;6.73;;
30243;SDS011;64022;53.652;9.792;2023-05-10T05:44:30;14.53;;;6.33;;
30243;SDS011;64022;53.652;9.792;2023-05-10T05:46:56;13.20;;;6.23;;
30243;SDS011;64022;53.652;9.792;2023-05-10T05:49:21;13.67;;;6.30;;
30243;SDS011;64022;53.652;9.792;2023-05-10T05:51:47;9.97;;;6.33;;
30243;SDS011;64022;53.652;9.792;2023-05-10T05:54:14;16.35;;;6.65;;
30243;SDS011;64022;53.652;9.792;2023-05-10T05:56:40;13.37;;;5.70;;
30243;SDS011;64022;53.652;9.792;2023-05-10T05:59:05;14.80;;;6.33;;
30243;SDS011;64022;53.652;9.792;2023-05-10T06:01:31;14.67;;;6.47;;
30243;SDS011;64022;53.652;9.792;2023-05-10T06:03:56;15.40;;;6.03;;
30243;SDS011;64022;53.652;9.792;2023-05-10T06:06:22;11.47;;;6.00;;
30243;SDS011;64022;53.652;9.792;2023-05-10T06:08:47;17.27;;;6.27;;
30243;SDS011;64022;53.652;9.792;2023-05-10T06:11:13;13.30;;;6.30;;
30243;SDS011;64022;53.652;9.792;2023-05-10T06:13:38;12.80;;;5.70;;
30243;SDS011;64022;53.652;9.792;2023-05-10T06:16:04;14.73;;;7.03;;
30243;SDS011;64022;53.652;9.792;2023-05-10T06:18:30;13.27;;;5.93;;
30243;SDS011;64022;53.652;9.792;2023-05-10T06:20:56;14.43;;;6.47;;
30243;SDS011;64022;53.652;9.792;2023-05-10T06:23:22;14.15;;;6.03;;
30243;SDS011;64022;53.652;9.792;2023-05-10T06:25:48;12.80;;;6.20;;
30243;SDS011;64022;53.652;9.792;2023-05-10T06:28:13;17.93;;;6.53;;
30243;SDS011;64022;53.652;9.792;2023-05-10T06:30:39;12.77;;;6.43;;
30243;SDS011;64022;53.652;9.792;2023-05-10T06:33:04;13.93;;;6.73;;
30243;SDS011;64022;53.652;9.792;2023-05-10T06:35:30;24.17;;;7.03;;
30243;SDS011;64022;53.652;9.792;2023-05-10T06:37:58;15.63;;;6.65;;
30243;SDS011;64022;53.652;9.792;2023-05-10T06:40:24;11.13;;;5.53;;
30243;SDS011;64022;53.652;9.792;2023-05-10T06:42:49;12.07;;;5.50;;
30243;SDS011;64022;53.652;9.792;2023-05-10T06:45:15;12.77;;;6.23;;
30243;SDS011;64022;53.652;9.792;2023-05-10T06:47:41;11.27;;;5.70;;
30243;SDS011;64022;53.652;9.792;2023-05-10T06:50:10;16.03;;;6.57;;
30243;SDS011;64022;53.652;9.792;2023-05-10T06:52:36;9.57;;;5.63;;
30243;SDS011;64022;53.652;9.792;2023-05-10T06:55:02;15.20;;;6.65;;
30243;SDS011;64022;53.652;9.792;2023-05-10T06:59:54;15.77;;;6.80;;
30243;SDS011;64022;53.652;9.792;2023-05-10T07:02:21;11.77;;;5.85;;
30243;SDS011;64022;53.652;9.792;2023-05-10T07:04:47;12.70;;;6.47;;
30243;SDS011;64022;53.652;9.792;2023-05-10T07:07:13;12.70;;;6.43;;
30243;SDS011;64022;53.652;9.792;2023-05-10T07:09:39;17.57;;;7.00;;
30243;SDS011;64022;53.652;9.792;2023-05-10T07:12:05;11.27;;;6.30;;
30243;SDS011;64022;53.652;9.792;2023-05-10T07:14:30;10.37;;;5.83;;
30243;SDS011;64022;53.652;9.792;2023-05-10T07:16:56;11.77;;;5.53;;
30243;SDS011;64022;53.652;9.792;2023-05-10T07:19:21;17.37;;;5.90;;
30243;SDS011;64022;53.652;9.792;2023-05-10T07:21:47;16.27;;;5.93;;
30243;SDS011;64022;53.652;9.792;2023-05-10T07:24:12;14.67;;;6.80;;
30243;SDS011;64022;53.652;9.792;2023-05-10T07:26:38;9.53;;;5.67;;
30243;SDS011;64022;53.652;9.792;2023-05-10T07:29:03;12.97;;;5.73;;
30243;SDS011;64022;53.652;9.792;2023-05-10T07:31:29;13.17;;;5.70;;
30243;SDS011;64022;53.652;9.792;2023-05-10T07:33:55;13.37;;;5.90;;
30243;SDS011;64022;53.652;9.792;2023-05-10T07:36:20;11.10;;;5.80;;
30243;SDS011;64022;53.652;9.792;2023-05-10T07:38:46;13.93;;;6.17;;
30243;SDS011;64022;53.652;9.792;2023-05-10T07:41:11;10.90;;;5.47;;
30243;SDS011;64022;53.652;9.792;2023-05-10T07:43:37;12.00;;;5.93;;
30243;SDS011;64022;53.652;9.792;2023-05-10T07:46:03;14.70;;;7.20;;
30243;SDS011;64022;53.652;9.792;2023-05-10T07:48:28;12.03;;;5.23;;
30243;SDS011;64022;53.652;9.792;2023-05-10T07:50:54;9.93;;;5.90;;
30243;SDS011;64022;53.652;9.792;2023-05-10T07:53:19;11.93;;;5.83;;
30243;SDS011;64022;53.652;9.792;2023-05-10T07:55:49;12.47;;;6.37;;
30243;SDS011;64022;53.652;9.792;2023-05-10T07:58:15;10.85;;;5.93;;
30243;SDS011;64022;53.652;9.792;2023-05-10T08:00:41;10.50;;;5.40;;
30243;SDS011;64022;53.652;9.792;2023-05-10T08:03:06;12.53;;;6.53;;
30243;SDS011;64022;53.652;9.792;2023-05-10T08:05:32;11.73;;;5.63;;
30243;SDS011;64022;53.652;9.792;2023-05-10T08:07:57;13.53;;;6.30;;
30243;SDS011;64022;53.652;9.792;2023-05-10T08:10:24;11.20;;;5.45;;
30243;SDS011;64022;53.652;9.792;2023-05-10T08:12:50;8.88;;;5.07;;
30243;SDS011;64022;53.652;9.792;2023-05-10T08:15:15;12.17;;;5.97;;
30243;SDS011;64022;53.652;9.792;2023-05-10T08:17:41;11.83;;;5.97;;
30243;SDS011;64022;53.652;9.792;2023-05-10T08:20:07;12.70;;;5.63;;
30243;SDS011;64022;53.652;9.792;2023-05-10T08:22:33;12.30;;;5.40;;
30243;SDS011;64022;53.652;9.792;2023-05-10T08:24:59;16.77;;;6.37;;
30243;SDS011;64022;53.652;9.792;2023-05-10T08:27:24;10.53;;;5.73;;
30243;SDS011;64022;53.652;9.792;2023-05-10T08:29:50;13.90;;;5.37;;
30243;SDS011;64022;53.652;9.792;2023-05-10T08:32:15;14.00;;;5.27;;
30243;SDS011;64022;53.652;9.792;2023-05-10T08:34:42;9.38;;;5.15;;
30243;SDS011;64022;53.652;9.792;2023-05-10T08:37:07;11.30;;;5.33;;
30243;SDS011;64022;53.652;9.792;2023-05-10T08:39:36;5.37;;;4.47;;
30243;SDS011;64022;53.652;9.792;2023-05-10T08:42:03;7.95;;;4.30;;
30243;SDS011;64022;53.652;9.792;2023-05-10T08:44:31;10.85;;;4.28;;
30243;SDS011;64022;53.652;9.792;2023-05-10T08:46:57;7.65;;;5.13;;
30243;SDS011;64022;53.652;9.792;2023-05-10T08:49:26;5.22;;;4.03;;
30243;SDS011;64022;53.652;9.792;2023-05-10T08:51:55;6.68;;;4.60;;
30243;SDS011;64022;53.652;9.792;2023-05-10T08:54:24;9.05;;;4.88;;
30243;SDS011;64022;53.652;9.792;2023-05-10T08:56:50;8.33;;;5.17;;
30243;SDS011;64022;53.652;9.792;2023-05-10T08:59:15;9.73;;;4.33;;
30243;SDS011;64022;53.652;9.792;2023-05-10T09:01:42;5.13;;;3.97;;
30243;SDS011;64022;53.652;9.792;2023-05-10T09:04:09;5.30;;;3.50;;
30243;SDS011;64022;53.652;9.792;2023-05-10T09:06:35;5.37;;;4.30;;
30243;SDS011;64022;53.652;9.792;2023-05-10T09:09:01;5.77;;;4.07;;
30243;SDS011;64022;53.652;9.792;2023-05-10T09:11:28;8.15;;;4.22;;
30243;SDS011;64022;53.652;9.792;2023-05-10T09:13:55;5.13;;;3.55;;
30243;SDS011;64022;53.652;9.792;2023-05-10T09:16:21;6.10;;;4.07;;
30243;SDS011;64022;53.652;9.792;2023-05-10T09:18:47;4.90;;;3.87;;
30243;SDS011;64022;53.652;9.792;2023-05-10T09:21:14;7.10;;;3.78;;
30243;SDS011;64022;53.652;9.792;2023-05-10T09:23:42;5.67;;;3.97;;
30243;SDS011;64022;53.652;9.792;2023-05-10T09:26:08;7.95;;;4.25;;
30243;SDS011;64022;53.652;9.792;2023-05-10T09:28:34;4.77;;;3.80;;
30243;SDS011;64022;53.652;9.792;2023-05-10T09:31:19;5.57;;;3.55;;
30243;SDS011;64022;53.652;9.792;2023-05-10T09:33:45;4.30;;;3.40;;
30243;SDS011;64022;53.652;9.792;2023-05-10T09:36:12;6.30;;;3.60;;
30243;SDS011;64022;53.652;9.792;2023-05-10T09:38:48;7.15;;;3.92;;
30243;SDS011;64022;53.652;9.792;2023-05-10T09:41:16;5.82;;;3.85;;
30243;SDS011;64022;53.652;9.792;2023-05-10T09:43:46;6.57;;;4.03;;
30243;SDS011;64022;53.652;9.792;2023-05-10T09:46:11;5.47;;;3.90;;
30243;SDS011;64022;53.652;9.792;2023-05-10T09:48:46;4.67;;;3.60;;
30243;SDS011;64022;53.652;9.792;2023-05-10T09:51:22;9.20;;;3.80;;
30243;SDS011;64022;53.652;9.792;2023-05-10T09:53:49;5.72;;;4.10;;
30243;SDS011;64022;53.652;9.792;2023-05-10T09:56:36;5.65;;;3.65;;
30243;SDS011;64022;53.652;9.792;2023-05-10T09:59:04;5.38;;;4.05;;
30243;SDS011;64022;53.652;9.792;2023-05-10T10:01:30;4.00;;;3.33;;
30243;SDS011;64022;53.652;9.792;2023-05-10T10:03:56;3.80;;;3.13;;
30243;SDS011;64022;53.652;9.792;2023-05-10T10:06:24;6.65;;;3.60;;
30243;SDS011;64022;53.652;9.792;2023-05-10T10:08:51;4.05;;;3.60;;
30243;SDS011;64022;53.652;9.792;2023-05-10T10:11:18;5.88;;;4.00;;
30243;SDS011;64022;53.652;9.792;2023-05-10T10:13:43;4.67;;;3.60;;
30243;SDS011;64022;53.652;9.792;2023-05-10T10:16:09;5.07;;;4.07;;
30243;SDS011;64022;53.652;9.792;2023-05-10T10:18:38;4.90;;;4.10;;
30243;SDS011;64022;53.652;9.792;2023-05-10T10:21:06;6.10;;;3.92;;
30243;SDS011;64022;53.652;9.792;2023-05-10T10:23:34;3.85;;;3.45;;
30243;SDS011;64022;53.652;9.792;2023-05-10T10:28:33;4.47;;;3.50;;
30243;SDS011;64022;53.652;9.792;2023-05-10T10:31:25;7.03;;;3.85;;
30243;SDS011;64022;53.652;9.792;2023-05-10T10:34:04;4.45;;;3.42;;
30243;SDS011;64022;53.652;9.792;2023-05-10T10:36:32;5.28;;;3.50;;
30243;SDS011;64022;53.652;9.792;2023-05-10T10:39:07;4.32;;;3.45;;
30243;SDS011;64022;53.652;9.792;2023-05-10T10:41:35;6.30;;;4.07;;
30243;SDS011;64022;53.652;9.792;2023-05-10T10:47:07;4.55;;;3.70;;
30243;SDS011;64022;53.652;9.792;2023-05-10T10:49:50;5.75;;;3.70;;
30243;SDS011;64022;53.652;9.792;2023-05-10T10:52:35;4.30;;;3.55;;
30243;SDS011;64022;53.652;9.792;2023-05-10T10:55:05;5.32;;;3.78;;
30243;SDS011;64022;53.652;9.792;2023-05-10T10:57:32;4.35;;;3.35;;
30243;SDS011;64022;53.652;9.792;2023-05-10T11:03:12;7.60;;;3.92;;
30243;SDS011;64022;53.652;9.792;2023-05-10T11:05:40;5.85;;;3.75;;
30243;SDS011;64022;53.652;9.792;2023-05-10T11:10:54;4.47;;;3.50;;
30243;SDS011;64022;53.652;9.792;2023-05-10T11:15:58;4.07;;;3.53;;
30243;SDS011;64022;53.652;9.792;2023-05-10T11:18:35;6.53;;;3.65;;
30243;SDS011;64022;53.652;9.792;2023-05-10T11:21:02;6.10;;;4.30;;
30243;SDS011;64022;53.652;9.792;2023-05-10T11:23:47;6.32;;;4.00;;
30243;SDS011;64022;53.652;9.792;2023-05-10T11:26:12;4.07;;;3.50;;
30243;SDS011;64022;53.652;9.792;2023-05-10T11:28:42;4.40;;;3.35;;
30243;SDS011;64022;53.652;9.792;2023-05-10T11:31:18;5.60;;;4.00;;
30243;SDS011;64022;53.652;9.792;2023-05-10T11:33:45;4.53;;;3.75;;
30243;SDS011;64022;53.652;9.792;2023-05-10T11:36:12;5.03;;;4.18;;
30243;SDS011;64022;53.652;9.792;2023-05-10T11:38:58;4.45;;;3.80;;
30243;SDS011;64022;53.652;9.792;2023-05-10T11:41:24;5.70;;;4.30;;
30243;SDS011;64022;53.652;9.792;2023-05-10T11:43:54;5.18;;;4.32;;
30243;SDS011;64022;53.652;9.792;2023-05-10T11:46:23;5.03;;;4.18;;
30243;SDS011;64022;53.652;9.792;2023-05-10T11:48:50;4.93;;;4.18;;
30243;SDS011;64022;53.652;9.792;2023-05-10T11:51:24;5.60;;;4.00;;
30243;SDS011;64022;53.652;9.792;2023-05-10T11:53:50;5.50;;;4.43;;
30243;SDS011;64022;53.652;9.792;2023-05-10T11:56:18;6.05;;;4.70;;
30243;SDS011;64022;53.652;9.792;2023-05-10T11:58:47;6.43;;;4.72;;
30243;SDS011;64022;53.652;9.792;2023-05-10T12:01:21;6.30;;;4.63;;
30243;SDS011;64022;53.652;9.792;2023-05-10T12:03:48;5.88;;;4.43;;
30243;SDS011;64022;53.652;9.792;2023-05-10T12:06:15;5.40;;;4.72;;
30243;SDS011;64022;53.652;9.792;2023-05-10T12:08:45;6.13;;;4.80;;
30243;SDS011;64022;53.652;9.792;2023-05-10T12:11:12;7.35;;;5.20;;
30243;SDS011;64022;53.652;9.792;2023-05-10T12:13:42;6.00;;;4.90;;
30243;SDS011;64022;53.652;9.792;2023-05-10T12:16:18;7.68;;;4.75;;
30243;SDS011;64022;53.652;9.792;2023-05-10T12:18:49;7.90;;;5.10;;
30243;SDS011;64022;53.652;9.792;2023-05-10T12:21:19;7.35;;;5.50;;
30243;SDS011;64022;53.652;9.792;2023-05-10T12:23:46;7.78;;;5.97;;
30243;SDS011;64022;53.652;9.792;2023-05-10T12:26:13;7.88;;;5.30;;
30243;SDS011;64022;53.652;9.792;2023-05-10T12:28:39;7.13;;;5.90;;
30243;SDS011;64022;53.652;9.792;2023-05-10T12:31:05;6.57;;;5.43;;
30243;SDS011;64022;53.652;9.792;2023-05-10T12:33:38;6.60;;;5.38;;
30243;SDS011;64022;53.652;9.792;2023-05-10T12:36:08;5.60;;;4.70;;
30243;SDS011;64022;53.652;9.792;2023-05-10T12:38:36;7.35;;;5.90;;
30243;SDS011;64022;53.652;9.792;2023-05-10T12:41:11;7.50;;;6.00;;
30243;SDS011;64022;53.652;9.792;2023-05-10T12:43:38;8.82;;;6.10;;
30243;SDS011;64022;53.652;9.792;2023-05-10T12:46:08;8.30;;;5.97;;
30243;SDS011;64022;53.652;9.792;2023-05-10T12:48:39;8.13;;;6.28;;
30243;SDS011;64022;53.652;9.792;2023-05-10T12:51:06;7.55;;;6.47;;
30243;SDS011;64022;53.652;9.792;2023-05-10T12:53:38;7.68;;;5.93;;
30243;SDS011;64022;53.652;9.792;2023-05-10T12:56:04;6.60;;;5.70;;
30243;SDS011;64022;53.652;9.792;2023-05-10T12:58:30;8.77;;;6.40;;
30243;SDS011;64022;53.652;9.792;2023-05-10T13:00:57;7.97;;;6.50;;
30243;SDS011;64022;53.652;9.792;2023-05-10T13:05:48;8.18;;;6.50;;
30243;SDS011;64022;53.652;9.792;2023-05-10T13:08:14;8.93;;;6.77;;
30243;SDS011;64022;53.652;9.792;2023-05-10T13:10:39;9.10;;;6.77;;
30243;SDS011;64022;53.652;9.792;2023-05-10T13:13:05;11.63;;;7.67;;
30243;SDS011;64022;53.652;9.792;2023-05-10T13:17:57;10.93;;;6.90;;
30243;SDS011;64022;53.652;9.792;2023-05-10T13:20:23;8.60;;;6.80;;
30243;SDS011;64022;53.652;9.792;2023-05-10T13:22:50;10.10;;;7.45;;
30243;SDS011;64022;53.652;9.792;2023-05-10T13:25:15;8.97;;;7.43;;
30243;SDS011;64022;53.652;9.792;2023-05-10T13:27:41;9.47;;;6.97;;
30243;SDS011;64022;53.652;9.792;2023-05-10T13:30:07;10.40;;;7.97;;
30243;SDS011;64022;53.652;9.792;2023-05-10T13:32:33;8.45;;;6.70;;
30243;SDS011;64022;53.652;9.792;2023-05-10T13:34:59;11.43;;;7.23;;
30243;SDS011;64022;53.652;9.792;2023-05-10T13:37:25;11.70;;;7.90;;
30243;SDS011;64022;53.652;9.792;2023-05-10T13:39:50;9.03;;;7.00;;
30243;SDS011;64022;53.652;9.792;2023-05-10T13:42:16;9.90;;;7.40;;
30243;SDS011;64022;53.652;9.792;2023-05-10T13:44:42;11.00;;;8.35;;
30243;SDS011;64022;53.652;9.792;2023-05-10T13:47:08;10.70;;;7.33;;
30243;SDS011;64022;53.652;9.792;2023-05-10T13:49:33;11.00;;;8.00;;
30243;SDS011;64022;53.652;9.792;2023-05-10T13:51:59;9.90;;;7.40;;
30243;SDS011;64022;53.652;9.792;2023-05-10T13:54:31;8.73;;;7.50;;
30243;SDS011;64022;53.652;9.792;2023-05-10T13:57:00;9.10;;;7.22;;
30243;SDS011;64022;53.652;9.792;2023-05-10T13:59:26;10.83;;;8.17;;
30243;SDS011;64022;53.652;9.792;2023-05-10T14:01:51;10.90;;;8.27;;
30243;SDS011;64022;53.652;9.792;2023-05-10T14:04:17;8.80;;;7.27;;
30243;SDS011;64022;53.652;9.792;2023-05-10T14:06:42;9.57;;;7.43;;
30243;SDS011;64022;53.652;9.792;2023-05-10T14:09:08;9.03;;;7.73;;
30243;SDS011;64022;53.652;9.792;2023-05-10T14:11:34;10.07;;;7.80;;
30243;SDS011;64022;53.652;9.792;2023-05-10T14:13:59;10.77;;;8.17;;
30243;SDS011;64022;53.652;9.792;2023-05-10T14:16:25;9.30;;;7.23;;
30243;SDS011;64022;53.652;9.792;2023-05-10T14:18:51;11.18;;;8.38;;
30243;SDS011;64022;53.652;9.792;2023-05-10T14:21:17;10.83;;;7.30;;
30243;SDS011;64022;53.652;9.792;2023-05-10T14:23:42;11.50;;;8.33;;
30243;SDS011;64022;53.652;9.792;2023-05-10T14:26:08;9.50;;;7.30;;
30243;SDS011;64022;53.652;9.792;2023-05-10T14:28:34;10.23;;;7.83;;
30243;SDS011;64022;53.652;9.792;2023-05-10T14:31:00;10.30;;;7.90;;
30243;SDS011;64022;53.652;9.792;2023-05-10T14:33:26;8.87;;;7.57;;
30243;SDS011;64022;53.652;9.792;2023-05-10T14:35:51;12.23;;;8.47;;
30243;SDS011;64022;53.652;9.792;2023-05-10T14:38:19;9.73;;;7.35;;
30243;SDS011;64022;53.652;9.792;2023-05-10T14:40:44;10.10;;;7.43;;
30243;SDS011;64022;53.652;9.792;2023-05-10T14:43:10;6.87;;;5.90;;
30243;SDS011;64022;53.652;9.792;2023-05-10T14:45:35;8.87;;;6.50;;
30243;SDS011;64022;53.652;9.792;2023-05-10T14:48:01;6.70;;;5.53;;
30243;SDS011;64022;53.652;9.792;2023-05-10T14:50:29;7.05;;;5.88;;
30243;SDS011;64022;53.652;9.792;2023-05-10T14:52:55;5.93;;;5.18;;
30243;SDS011;64022;53.652;9.792;2023-05-10T14:55:21;6.23;;;4.63;;
30243;SDS011;64022;53.652;9.792;2023-05-10T14:57:46;6.40;;;5.53;;
30243;SDS011;64022;53.652;9.792;2023-05-10T15:00:14;6.45;;;5.28;;
30243;SDS011;64022;53.652;9.792;2023-05-10T15:02:40;5.40;;;4.53;;
30243;SDS011;64022;53.652;9.792;2023-05-10T15:05:06;5.97;;;4.93;;
30243;SDS011;64022;53.652;9.792;2023-05-10T15:07:32;9.67;;;4.70;;
30243;SDS011;64022;53.652;9.792;2023-05-10T15:09:57;6.83;;;5.07;;
30243;SDS011;64022;53.652;9.792;2023-05-10T15:12:23;6.47;;;5.53;;
30243;SDS011;64022;53.652;9.792;2023-05-10T15:14:48;5.97;;;4.83;;
30243;SDS011;64022;53.652;9.792;2023-05-10T15:17:14;10.00;;;7.37;;
30243;SDS011;64022;53.652;9.792;2023-05-10T15:19:41;7.88;;;6.28;;